Terminal Aerodrome Forecast
Issued by NWS

Home | Current Version | Previous Version | Text Only | Print | Product List | Glossary On
Versions: 1 2 3 4 5 6 7 8 9 10 11 12
894
FTUS42 TJSJ 291140
TAFJPS
TAF
TJPS 291140Z 2912/3012 VRB10KT P6SM VCSH FEW030 SCT050
     FM291530 13010KT P6SM VCTS SCT025CB BKN050
     FM292300 05005KT P6SM SCT060
      AMD NOT SKED TIL 300300=

USA.gov is the U.S. government's official web portal to all federal, state and local government web resources and services.